EZY204R EGAA-EGPH
Flight info
| Callsign | EZY204R |
|---|---|
| Flight time | 0h 27m |
| Altitude | 19000 |
| Route | BLACA P600 TUNSO |
| Aircraft | A320/M-SDE2E3FGHIJ1RWXYZ/LB1 |
Departure
| Time | 2026-04-26 12:17 |
|---|---|
| Airport | Belfast International Airport (EGAA) |
Arrival
| Time | 2026-04-26 12:45 |
|---|---|
| Airport | Edinburgh Airport (EGPH) |
| Time | Latitude | Longitude | Altitude | Speed | Heading |
|---|---|---|---|---|---|
| 2026-04-26 12:01 | 54.66144 | -6.21385 | 272 ft | 0 kts | 245° |
| 2026-04-26 12:11 | 54.66153 | -6.21354 | 272 ft | 4 kts | 240° |
| 2026-04-26 12:12 | 54.66168 | -6.21317 | 276 ft | 4 kts | 213° |
| 2026-04-26 12:12 | 54.66186 | -6.21309 | 277 ft | 1 kts | 155° |
| 2026-04-26 12:12 | 54.66186 | -6.21310 | 277 ft | 0 kts | 155° |
| 2026-04-26 12:15 | 54.66184 | -6.21308 | 277 ft | 3 kts | 154° |
| 2026-04-26 12:15 | 54.66095 | -6.21237 | 276 ft | 20 kts | 154° |
| 2026-04-26 12:16 | 54.66046 | -6.21144 | 272 ft | 0 kts | 99° |
| 2026-04-26 12:16 | 54.66043 | -6.21114 | 272 ft | 10 kts | 104° |
| 2026-04-26 12:16 | 54.65989 | -6.21024 | 272 ft | 11 kts | 153° |
| 2026-04-26 12:16 | 54.65924 | -6.20981 | 272 ft | 9 kts | 175° |
| 2026-04-26 12:17 | 54.65886 | -6.21064 | 272 ft | 14 kts | 245° |
| 2026-04-26 12:17 | 54.65731 | -6.21647 | 272 ft | 96 kts | 245° |
| 2026-04-26 12:17 | 54.65355 | -6.23069 | 318 ft | 158 kts | 247° |
| 2026-04-26 12:17 | 54.64894 | -6.24839 | 1041 ft | 164 kts | 243° |
| 2026-04-26 12:18 | 54.64178 | -6.26339 | 1954 ft | 161 kts | 211° |
| 2026-04-26 12:18 | 54.63106 | -6.26624 | 2739 ft | 165 kts | 162° |
| 2026-04-26 12:18 | 54.62273 | -6.25271 | 3460 ft | 173 kts | 110° |
| 2026-04-26 12:18 | 54.62301 | -6.23170 | 3966 ft | 190 kts | 71° |
| 2026-04-26 12:19 | 54.62969 | -6.21047 | 4299 ft | 214 kts | 57° |
| 2026-04-26 12:19 | 54.63864 | -6.18764 | 4602 ft | 245 kts | 55° |
| 2026-04-26 12:19 | 54.64875 | -6.16214 | 5162 ft | 268 kts | 56° |
| 2026-04-26 12:19 | 54.65935 | -6.13498 | 6046 ft | 277 kts | 56° |
| 2026-04-26 12:20 | 54.67023 | -6.10703 | 6985 ft | 284 kts | 57° |
| 2026-04-26 12:20 | 54.68138 | -6.07843 | 7893 ft | 290 kts | 57° |
| 2026-04-26 12:20 | 54.69279 | -6.04931 | 8833 ft | 295 kts | 57° |
| 2026-04-26 12:20 | 54.70442 | -6.01970 | 9773 ft | 301 kts | 57° |
| 2026-04-26 12:21 | 54.71640 | -5.98916 | 10427 ft | 317 kts | 57° |
| 2026-04-26 12:21 | 54.72921 | -5.95645 | 10896 ft | 336 kts | 57° |
| 2026-04-26 12:21 | 54.74247 | -5.92249 | 11686 ft | 344 kts | 56° |
| 2026-04-26 12:21 | 54.75595 | -5.88796 | 12536 ft | 348 kts | 56° |
| 2026-04-26 12:22 | 54.76960 | -5.85299 | 13390 ft | 353 kts | 56° |
| 2026-04-26 12:22 | 54.78343 | -5.81756 | 14229 ft | 357 kts | 56° |
| 2026-04-26 12:22 | 54.79741 | -5.78170 | 14959 ft | 361 kts | 56° |
| 2026-04-26 12:22 | 54.81149 | -5.74532 | 15683 ft | 365 kts | 56° |
| 2026-04-26 12:23 | 54.82567 | -5.70845 | 16405 ft | 370 kts | 56° |
| 2026-04-26 12:23 | 54.84007 | -5.67113 | 17120 ft | 374 kts | 55° |
| 2026-04-26 12:23 | 54.85467 | -5.63348 | 17848 ft | 378 kts | 55° |
| 2026-04-26 12:23 | 54.86944 | -5.59542 | 18571 ft | 382 kts | 55° |
| 2026-04-26 12:24 | 54.88437 | -5.55685 | 19089 ft | 387 kts | 55° |
| 2026-04-26 12:24 | 54.89939 | -5.51798 | 19248 ft | 388 kts | 55° |
| 2026-04-26 12:24 | 54.91414 | -5.47961 | 19288 ft | 373 kts | 55° |
| 2026-04-26 12:25 | 54.94227 | -5.40615 | 19293 ft | 362 kts | 56° |
| 2026-04-26 12:25 | 54.95791 | -5.37091 | 19281 ft | 376 kts | 43° |
| 2026-04-26 12:25 | 54.97708 | -5.34060 | 19038 ft | 368 kts | 39° |
| 2026-04-26 12:25 | 54.99622 | -5.31183 | 18805 ft | 360 kts | 39° |
| 2026-04-26 12:26 | 55.01498 | -5.28371 | 18576 ft | 352 kts | 39° |
| 2026-04-26 12:26 | 55.03342 | -5.25605 | 18301 ft | 348 kts | 39° |
| 2026-04-26 12:26 | 55.05168 | -5.22866 | 18031 ft | 345 kts | 39° |
| 2026-04-26 12:26 | 55.06986 | -5.20141 | 17764 ft | 344 kts | 39° |
| 2026-04-26 12:27 | 55.08794 | -5.17431 | 17499 ft | 342 kts | 39° |
| 2026-04-26 12:27 | 55.10571 | -5.14766 | 17234 ft | 341 kts | 39° |
| 2026-04-26 12:27 | 55.12364 | -5.12079 | 16979 ft | 339 kts | 39° |
| 2026-04-26 12:27 | 55.14152 | -5.09400 | 16713 ft | 338 kts | 39° |
| 2026-04-26 12:28 | 55.15931 | -5.06736 | 16466 ft | 336 kts | 39° |
| 2026-04-26 12:28 | 55.17705 | -5.04078 | 16227 ft | 336 kts | 39° |
| 2026-04-26 12:28 | 55.19477 | -5.01417 | 15975 ft | 335 kts | 39° |
| 2026-04-26 12:28 | 55.21242 | -4.98769 | 15723 ft | 334 kts | 39° |
| 2026-04-26 12:29 | 55.23000 | -4.96128 | 15475 ft | 332 kts | 40° |
| 2026-04-26 12:29 | 55.24605 | -4.93225 | 15224 ft | 332 kts | 47° |
| 2026-04-26 12:29 | 55.27642 | -4.87181 | 14738 ft | 329 kts | 48° |
| 2026-04-26 12:30 | 55.29140 | -4.84156 | 14500 ft | 328 kts | 48° |
| 2026-04-26 12:30 | 55.30633 | -4.81142 | 14257 ft | 327 kts | 48° |
| 2026-04-26 12:30 | 55.32122 | -4.78139 | 14010 ft | 325 kts | 48° |
| 2026-04-26 12:31 | 55.35083 | -4.72172 | 13478 ft | 323 kts | 48° |
| 2026-04-26 12:31 | 55.36556 | -4.69201 | 13216 ft | 322 kts | 49° |
| 2026-04-26 12:31 | 55.37528 | -4.67239 | 13005 ft | 321 kts | 49° |
| 2026-04-26 12:31 | 55.39484 | -4.63287 | 12671 ft | 319 kts | 49° |
| 2026-04-26 12:32 | 55.40448 | -4.61336 | 12499 ft | 319 kts | 49° |
| 2026-04-26 12:32 | 55.41899 | -4.58398 | 12240 ft | 318 kts | 49° |
| 2026-04-26 12:32 | 55.44788 | -4.52535 | 11743 ft | 316 kts | 49° |
| 2026-04-26 12:33 | 55.46225 | -4.49615 | 11492 ft | 315 kts | 49° |
| 2026-04-26 12:33 | 55.47656 | -4.46696 | 11243 ft | 314 kts | 49° |
| 2026-04-26 12:33 | 55.49082 | -4.43788 | 10990 ft | 313 kts | 49° |
| 2026-04-26 12:33 | 55.50504 | -4.40886 | 10746 ft | 313 kts | 49° |
| 2026-04-26 12:34 | 55.51922 | -4.37988 | 10503 ft | 312 kts | 49° |
| 2026-04-26 12:34 | 55.53337 | -4.35091 | 10261 ft | 311 kts | 49° |
| 2026-04-26 12:34 | 55.54748 | -4.32208 | 10013 ft | 310 kts | 49° |
| 2026-04-26 12:34 | 55.56153 | -4.29334 | 9744 ft | 308 kts | 50° |
| 2026-04-26 12:35 | 55.57547 | -4.26470 | 9479 ft | 306 kts | 50° |
| 2026-04-26 12:35 | 55.58931 | -4.23619 | 9218 ft | 304 kts | 50° |
| 2026-04-26 12:35 | 55.60306 | -4.20791 | 8953 ft | 303 kts | 50° |
| 2026-04-26 12:35 | 55.61675 | -4.17971 | 8692 ft | 301 kts | 50° |
| 2026-04-26 12:36 | 55.63033 | -4.15170 | 8439 ft | 299 kts | 50° |
| 2026-04-26 12:36 | 55.64385 | -4.12383 | 8182 ft | 298 kts | 49° |
| 2026-04-26 12:36 | 55.65730 | -4.09606 | 7925 ft | 296 kts | 50° |
| 2026-04-26 12:36 | 55.67063 | -4.06844 | 7668 ft | 294 kts | 50° |
| 2026-04-26 12:37 | 55.68386 | -4.04097 | 7433 ft | 292 kts | 50° |
| 2026-04-26 12:37 | 55.69701 | -4.01362 | 7185 ft | 291 kts | 50° |
| 2026-04-26 12:37 | 55.71009 | -3.98639 | 6931 ft | 289 kts | 50° |
| 2026-04-26 12:37 | 55.72309 | -3.95930 | 6688 ft | 287 kts | 49° |
| 2026-04-26 12:38 | 55.73595 | -3.93247 | 6429 ft | 283 kts | 49° |
| 2026-04-26 12:38 | 55.74850 | -3.90629 | 6164 ft | 274 kts | 49° |
| 2026-04-26 12:38 | 55.76072 | -3.88082 | 5907 ft | 267 kts | 49° |
| 2026-04-26 12:38 | 55.77263 | -3.85597 | 5650 ft | 261 kts | 49° |
| 2026-04-26 12:39 | 55.78422 | -3.83171 | 5394 ft | 255 kts | 49° |
| 2026-04-26 12:39 | 55.79556 | -3.80796 | 5141 ft | 249 kts | 49° |
| 2026-04-26 12:39 | 55.80692 | -3.78512 | 4887 ft | 244 kts | 49° |
| 2026-04-26 12:39 | 55.81697 | -3.76121 | 4623 ft | 240 kts | 57° |
| 2026-04-26 12:40 | 55.82576 | -3.73619 | 4377 ft | 236 kts | 59° |
| 2026-04-26 12:40 | 55.83421 | -3.71139 | 4131 ft | 232 kts | 59° |
| 2026-04-26 12:40 | 55.84244 | -3.68739 | 4007 ft | 226 kts | 59° |
| 2026-04-26 12:40 | 55.85062 | -3.66357 | 3739 ft | 226 kts | 59° |
| 2026-04-26 12:41 | 55.85882 | -3.63969 | 3463 ft | 227 kts | 59° |
| 2026-04-26 12:41 | 55.86708 | -3.61562 | 3137 ft | 228 kts | 59° |
| 2026-04-26 12:41 | 55.87528 | -3.59169 | 2833 ft | 226 kts | 59° |
| 2026-04-26 12:41 | 55.88329 | -3.56828 | 2517 ft | 215 kts | 59° |
| 2026-04-26 12:42 | 55.89075 | -3.54648 | 2265 ft | 198 kts | 59° |
| 2026-04-26 12:42 | 55.89765 | -3.52627 | 1971 ft | 184 kts | 59° |
| 2026-04-26 12:42 | 55.90402 | -3.50760 | 1764 ft | 167 kts | 59° |
| 2026-04-26 12:42 | 55.90973 | -3.49087 | 1493 ft | 152 kts | 59° |
| 2026-04-26 12:43 | 55.91507 | -3.47533 | 1241 ft | 142 kts | 58° |
| 2026-04-26 12:43 | 55.92012 | -3.46059 | 1051 ft | 137 kts | 59° |
| 2026-04-26 12:43 | 55.92500 | -3.44611 | 869 ft | 135 kts | 58° |
| 2026-04-26 12:43 | 55.92987 | -3.43185 | 709 ft | 134 kts | 58° |
| 2026-04-26 12:44 | 55.93471 | -3.41766 | 547 ft | 133 kts | 58° |
| 2026-04-26 12:44 | 55.93950 | -3.40352 | 372 ft | 133 kts | 58° |
| 2026-04-26 12:44 | 55.94424 | -3.38944 | 205 ft | 132 kts | 57° |
| 2026-04-26 12:44 | 55.94885 | -3.37601 | 113 ft | 118 kts | 59° |
| 2026-04-26 12:45 | 55.95216 | -3.36621 | 114 ft | 56 kts | 58° |
| 2026-04-26 12:45 | 55.95389 | -3.36112 | 111 ft | 33 kts | 59° |
| 2026-04-26 12:45 | 55.95500 | -3.35780 | 113 ft | 30 kts | 59° |
| 2026-04-26 12:45 | 55.95555 | -3.35593 | 113 ft | 16 kts | 75° |
| 2026-04-26 12:46 | 55.95503 | -3.35442 | 115 ft | 13 kts | 149° |
| 2026-04-26 12:46 | 55.95445 | -3.35403 | 115 ft | 7 kts | 191° |
| 2026-04-26 12:46 | 55.95411 | -3.35452 | 114 ft | 6 kts | 229° |
| 2026-04-26 12:46 | 55.95391 | -3.35513 | 114 ft | 5 kts | 239° |
| 2026-04-26 12:47 | 55.95374 | -3.35566 | 115 ft | 5 kts | 239° |
| 2026-04-26 12:47 | 55.95358 | -3.35614 | 115 ft | 4 kts | 240° |
| 2026-04-26 12:47 | 55.95343 | -3.35660 | 115 ft | 4 kts | 240° |
| 2026-04-26 12:47 | 55.95329 | -3.35703 | 116 ft | 4 kts | 240° |
| 2026-04-26 12:48 | 55.95316 | -3.35743 | 112 ft | 4 kts | 239° |
| 2026-04-26 12:48 | 55.95278 | -3.35850 | 115 ft | 17 kts | 237° |
| 2026-04-26 12:48 | 55.95211 | -3.36047 | 113 ft | 20 kts | 240° |
| 2026-04-26 12:48 | 55.95136 | -3.36271 | 115 ft | 22 kts | 239° |
| 2026-04-26 12:49 | 55.95053 | -3.36399 | 116 ft | 5 kts | 150° |
| 2026-04-26 12:49 | 55.95031 | -3.36392 | 113 ft | 6 kts | 184° |
| 2026-04-26 12:49 | 55.95003 | -3.36433 | 114 ft | 5 kts | 233° |
| 2026-04-26 12:49 | 55.94984 | -3.36487 | 112 ft | 7 kts | 240° |
| 2026-04-26 12:50 | 55.94945 | -3.36534 | 116 ft | 7 kts | 173° |
| 2026-04-26 12:50 | 55.94910 | -3.36501 | 113 ft | 2 kts | 149° |
| 2026-04-26 12:50 | 55.94906 | -3.36496 | 114 ft | 0 kts | 148° |
| 2026-04-26 12:52 | 55.94906 | -3.36497 | 114 ft | 0 kts | 148° |